createdAt,value
2022-09-16T00:01:16.377Z,79.00
2022-09-16T00:03:47.232Z,78.92
2022-09-16T00:06:20.161Z,78.88
2022-09-16T00:08:49.461Z,78.74
2022-09-16T00:11:18.650Z,78.68
2022-09-16T00:13:47.903Z,78.70
2022-09-16T00:16:20.632Z,78.81
2022-09-16T00:18:48.685Z,78.90
2022-09-16T00:21:17.151Z,78.86
2022-09-16T00:23:44.855Z,78.89
2022-09-16T00:26:12.741Z,78.87
2022-09-16T00:28:40.555Z,78.83
2022-09-16T00:31:08.483Z,78.85
2022-09-16T00:33:36.224Z,78.80
2022-09-16T00:36:13.976Z,78.96
2022-09-16T00:38:42.472Z,79.16
2022-09-16T00:41:17.827Z,79.28
2022-09-16T00:43:53.105Z,79.38
2022-09-16T00:46:41.194Z,79.52
2022-09-16T00:49:28.043Z,79.64
2022-09-16T00:52:01.391Z,79.73
2022-09-16T00:54:30.722Z,79.62
2022-09-16T00:57:00.173Z,79.54
2022-09-16T00:59:34.216Z,79.41
2022-09-16T01:02:06.450Z,79.37
2022-09-16T01:04:45.189Z,79.33
2022-09-16T01:07:13.314Z,79.17
2022-09-16T01:09:42.826Z,79.05
2022-09-16T01:12:10.106Z,78.74
2022-09-16T01:14:52.958Z,78.67
2022-09-16T01:17:37.967Z,78.76
2022-09-16T01:20:37.124Z,78.88
2022-09-16T01:23:43.201Z,79.02
2022-09-16T01:26:40.378Z,79.06
2022-09-16T01:29:56.763Z,79.04
2022-09-16T01:32:33.179Z,79.25
2022-09-16T01:35:41.473Z,79.37
2022-09-16T01:38:44.557Z,79.55
2022-09-16T01:41:40.910Z,79.76
2022-09-16T01:44:35.622Z,79.95
2022-09-16T01:47:19.467Z,80.19
2022-09-16T01:50:01.639Z,80.42
2022-09-16T01:52:40.753Z,80.32
2022-09-16T01:55:19.583Z,80.42
2022-09-16T01:58:01.541Z,80.46
2022-09-16T02:00:31.287Z,80.38
2022-09-16T02:03:19.014Z,80.30
2022-09-16T02:05:53.984Z,80.24
2022-09-16T02:08:35.149Z,80.71
2022-09-16T02:11:14.820Z,80.53
2022-09-16T02:14:00.937Z,80.77
2022-09-16T02:16:44.951Z,81.06
2022-09-16T02:19:27.030Z,81.44
2022-09-16T02:21:57.475Z,81.50
2022-09-16T02:24:33.275Z,81.75
2022-09-16T02:27:14.363Z,81.79
2022-09-16T02:30:00.704Z,81.93
2022-09-16T02:32:31.739Z,82.19
2022-09-16T02:35:01.942Z,83.06
2022-09-16T02:37:43.984Z,82.47
2022-09-16T02:40:16.555Z,83.03
2022-09-16T02:42:44.415Z,83.05
2022-09-16T02:45:12.725Z,83.38
2022-09-16T02:48:04.010Z,83.50
2022-09-16T02:50:52.489Z,83.57
2022-09-16T02:53:46.375Z,83.54
2022-09-16T02:56:22.533Z,83.69
2022-09-16T02:58:51.134Z,83.60
2022-09-16T03:01:22.299Z,83.76
2022-09-16T03:03:53.025Z,83.73
2022-09-16T03:06:24.832Z,83.83
2022-09-16T03:08:55.858Z,83.74
2022-09-16T03:12:11.636Z,83.79
2022-09-16T03:15:31.947Z,83.89
2022-09-16T03:18:16.962Z,83.79
2022-09-16T03:20:52.889Z,83.89
2022-09-16T03:23:48.887Z,83.87
2022-09-16T03:26:48.185Z,84.05
2022-09-16T03:29:39.810Z,84.02
2022-09-16T03:32:34.202Z,83.97
2022-09-16T03:35:10.493Z,84.09
2022-09-16T03:37:40.933Z,84.26
2022-09-16T03:40:13.600Z,84.57
2022-09-16T03:42:43.376Z,84.62
2022-09-16T03:45:20.801Z,84.72
2022-09-16T03:47:52.008Z,84.78
2022-09-16T03:50:20.931Z,85.03
2022-09-16T03:52:48.888Z,84.97
2022-09-16T03:55:16.748Z,84.99
2022-09-16T03:57:44.258Z,85.36
2022-09-16T04:00:12.713Z,85.13
2022-09-16T04:02:40.175Z,85.26
2022-09-16T04:05:09.076Z,85.16
2022-09-16T04:07:36.806Z,85.16
2022-09-16T04:10:06.753Z,85.52
2022-09-16T04:12:34.698Z,85.59
2022-09-16T04:15:02.328Z,85.38
2022-09-16T04:17:32.612Z,85.42
2022-09-16T04:20:00.542Z,85.56
2022-09-16T04:22:30.365Z,85.81
2022-09-16T04:24:58.043Z,85.75
2022-09-16T04:27:25.720Z,85.96
2022-09-16T04:29:52.961Z,85.90
2022-09-16T04:32:20.981Z,85.93
2022-09-16T04:34:48.547Z,86.17
2022-09-16T04:37:16.051Z,86.16
2022-09-16T04:39:43.552Z,86.18
2022-09-16T04:42:12.072Z,86.31
2022-09-16T04:44:40.136Z,86.32
2022-09-16T04:47:07.770Z,86.33
2022-09-16T04:49:35.440Z,86.31
2022-09-16T04:52:03.182Z,86.26
2022-09-16T04:54:30.814Z,86.25
2022-09-16T04:56:58.287Z,86.33
2022-09-16T04:59:25.560Z,86.12
2022-09-16T05:01:53.198Z,86.05
2022-09-16T05:04:20.926Z,85.82
2022-09-16T05:06:48.623Z,85.62
2022-09-16T05:09:16.293Z,85.65
2022-09-16T05:11:44.246Z,85.63
2022-09-16T05:14:16.077Z,85.75
2022-09-16T05:16:44.719Z,85.79
2022-09-16T05:19:13.833Z,85.99
2022-09-16T05:21:42.058Z,86.17
2022-09-16T05:24:14.038Z,86.50
2022-09-16T05:26:43.321Z,86.77
2022-09-16T05:29:15.212Z,87.12
2022-09-16T05:31:46.793Z,87.22
2022-09-16T05:34:18.593Z,87.24
2022-09-16T05:36:47.482Z,87.44
2022-09-16T05:39:23.366Z,87.61
2022-09-16T05:41:48.340Z,87.56
2022-09-16T05:44:15.969Z,87.44
2022-09-16T05:46:43.711Z,87.63
2022-09-16T05:49:11.920Z,87.28
2022-09-16T05:51:41.006Z,87.34
2022-09-16T05:54:08.736Z,86.81
2022-09-16T05:56:36.663Z,86.68
2022-09-16T05:59:04.681Z,86.46
2022-09-16T06:01:35.189Z,86.29
2022-09-16T06:04:06.126Z,86.29
2022-09-16T06:06:42.777Z,86.15
2022-09-16T06:09:18.254Z,86.12
2022-09-16T06:11:49.190Z,86.16
2022-09-16T06:14:22.102Z,86.14
2022-09-16T06:16:50.698Z,86.01
2022-09-16T06:19:19.418Z,85.96
2022-09-16T06:21:47.515Z,86.45
2022-09-16T06:24:18.338Z,84.19
2022-09-16T06:26:47.991Z,82.04
2022-09-16T06:29:17.144Z,81.83
2022-09-16T06:31:44.836Z,81.41
2022-09-16T06:34:15.911Z,80.52
2022-09-16T06:36:45.313Z,81.10
2022-09-16T06:39:15.645Z,80.86
2022-09-16T06:41:45.499Z,80.86
2022-09-16T06:44:13.382Z,78.49
2022-09-16T06:46:41.454Z,79.26
2022-09-16T06:49:10.432Z,78.29
2022-09-16T06:51:37.959Z,76.93
2022-09-16T06:54:08.752Z,76.04
2022-09-16T06:56:39.160Z,74.57
2022-09-16T06:59:08.749Z,75.26
2022-09-16T07:01:37.071Z,73.21
2022-09-16T07:04:13.075Z,73.30
2022-09-16T07:09:10.679Z,73.86
2022-09-16T07:11:40.197Z,71.11
2022-09-16T07:14:09.168Z,72.01
2022-09-16T07:16:36.865Z,70.15
2022-09-16T07:19:05.060Z,69.67
2022-09-16T07:21:33.176Z,70.12
2022-09-16T07:24:02.896Z,69.50
2022-09-16T07:26:34.389Z,67.62
2022-09-16T07:29:05.075Z,69.04
2022-09-16T07:31:36.680Z,66.43
2022-09-16T07:34:07.184Z,67.16
2022-09-16T07:36:45.253Z,65.43
2022-09-16T07:39:15.345Z,64.81
2022-09-16T07:41:45.544Z,64.40
2022-09-16T07:44:16.282Z,64.42
2022-09-16T07:46:44.124Z,65.18
2022-09-16T07:49:14.053Z,66.23
2022-09-16T07:51:42.619Z,65.64
2022-09-16T07:54:14.425Z,67.03
2022-09-16T07:56:43.799Z,67.44
2022-09-16T07:59:18.610Z,67.15
2022-09-16T08:01:45.555Z,66.92
2022-09-16T08:04:13.352Z,66.29
2022-09-16T08:06:41.169Z,66.54
2022-09-16T08:09:27.184Z,65.82
2022-09-16T08:11:38.294Z,66.57
2022-09-16T08:14:06.331Z,66.35
2022-09-16T08:16:33.932Z,64.79
2022-09-16T08:19:01.717Z,64.41
2022-09-16T08:21:29.462Z,64.66
2022-09-16T08:23:57.794Z,65.02
2022-09-16T08:26:26.882Z,64.71
2022-09-16T08:29:10.538Z,63.56
2022-09-16T08:31:23.793Z,62.69
2022-09-16T08:33:51.420Z,63.41
2022-09-16T08:36:22.344Z,63.15
2022-09-16T08:38:54.162Z,64.32
2022-09-16T08:41:54.766Z,64.36
2022-09-16T08:44:45.981Z,62.81
2022-09-16T08:47:35.881Z,61.83
2022-09-16T08:50:08.992Z,61.44
2022-09-16T08:52:38.506Z,61.48
2022-09-16T08:55:25.233Z,62.14
2022-09-16T08:58:13.075Z,63.58
2022-09-16T09:00:43.669Z,63.90
2022-09-16T09:03:37.384Z,63.37
2022-09-16T09:06:20.483Z,63.63
2022-09-16T09:09:27.140Z,62.75
2022-09-16T09:12:14.707Z,62.82
2022-09-16T09:15:36.042Z,64.18
2022-09-16T09:18:18.447Z,62.98
2022-09-16T09:21:06.599Z,62.14
2022-09-16T09:24:17.858Z,61.11
2022-09-16T09:27:00.514Z,57.82
2022-09-16T09:29:53.659Z,55.88
2022-09-16T09:32:49.823Z,55.24
2022-09-16T09:35:54.636Z,53.91
2022-09-16T09:39:03.122Z,53.91
2022-09-16T09:41:44.993Z,53.43
2022-09-16T09:44:36.416Z,53.96
2022-09-16T09:47:09.419Z,53.37
2022-09-16T09:49:46.267Z,54.14
2022-09-16T09:52:28.432Z,54.63
2022-09-16T09:55:01.146Z,55.62
2022-09-16T09:57:40.338Z,56.48
2022-09-16T10:00:16.361Z,56.50
2022-09-16T10:02:49.591Z,56.42
2022-09-16T10:05:25.944Z,56.67
2022-09-16T10:07:57.969Z,53.55
2022-09-16T10:10:29.750Z,54.59
2022-09-16T10:13:10.787Z,52.54
2022-09-16T10:15:40.416Z,52.61
2022-09-16T10:18:30.150Z,51.60
2022-09-16T10:21:14.601Z,50.26
2022-09-16T10:23:54.138Z,50.99
2022-09-16T10:26:27.613Z,51.53
2022-09-16T10:29:19.072Z,50.30
2022-09-16T10:31:47.424Z,47.83
2022-09-16T10:34:29.684Z,48.98
2022-09-16T10:37:05.695Z,49.57
2022-09-16T10:39:34.039Z,51.09
2022-09-16T10:42:02.849Z,50.09
2022-09-16T10:44:33.415Z,50.91
2022-09-16T10:47:08.909Z,50.88
2022-09-16T10:49:50.263Z,51.10
2022-09-16T10:52:25.812Z,48.70
2022-09-16T10:54:54.626Z,49.39
2022-09-16T10:57:30.029Z,49.64
2022-09-16T11:00:04.991Z,49.65
2022-09-16T11:03:01.923Z,50.69
2022-09-16T11:05:40.583Z,49.71
2022-09-16T11:08:42.770Z,50.67
2022-09-16T11:11:44.716Z,51.34
2022-09-16T11:14:23.751Z,51.07
2022-09-16T11:17:02.780Z,51.57
2022-09-16T11:19:54.359Z,51.84
2022-09-16T11:22:35.692Z,51.30
2022-09-16T11:25:30.204Z,51.74
2022-09-16T11:28:20.192Z,52.75
2022-09-16T11:31:15.512Z,53.02
2022-09-16T11:34:19.005Z,51.83
2022-09-16T11:36:55.510Z,51.28
2022-09-16T11:39:57.535Z,51.25
2022-09-16T11:42:46.306Z,52.19
2022-09-16T11:45:31.719Z,52.36
2022-09-16T11:48:24.271Z,52.83
2022-09-16T11:51:09.630Z,53.12
2022-09-16T11:54:02.809Z,53.12
2022-09-16T11:56:53.142Z,53.48
2022-09-16T11:59:47.392Z,53.86
2022-09-16T12:02:41.660Z,53.98
2022-09-16T12:05:26.502Z,54.79
2022-09-16T12:08:16.609Z,54.59
2022-09-16T12:10:54.278Z,54.97
2022-09-16T12:13:30.668Z,55.14
2022-09-16T12:16:06.137Z,55.44
2022-09-16T12:18:43.894Z,56.08
2022-09-16T12:21:22.587Z,56.22
2022-09-16T12:23:57.125Z,56.30
2022-09-16T12:26:32.745Z,56.72
2022-09-16T12:29:20.489Z,56.06
2022-09-16T12:32:05.567Z,56.23
2022-09-16T12:34:54.991Z,57.02
2022-09-16T12:37:33.779Z,57.51
2022-09-16T12:40:03.078Z,57.55
2022-09-16T12:43:03.529Z,57.84
2022-09-16T12:46:05.943Z,58.79
2022-09-16T12:48:50.415Z,60.10
2022-09-16T12:51:35.151Z,60.47
2022-09-16T12:54:11.050Z,61.65
2022-09-16T12:57:10.860Z,62.97
2022-09-16T12:59:52.612Z,63.25
2022-09-16T13:02:25.721Z,63.83
2022-09-16T13:04:57.704Z,64.52
2022-09-16T13:07:34.866Z,66.53
2022-09-16T13:10:17.299Z,67.41
2022-09-16T13:12:51.433Z,67.99
2022-09-16T13:15:36.682Z,68.09
2022-09-16T13:18:26.473Z,68.93
2022-09-16T13:21:00.300Z,70.36
2022-09-16T13:23:33.943Z,70.73
2022-09-16T13:26:08.977Z,72.10
2022-09-16T13:28:41.246Z,73.07
2022-09-16T13:31:18.175Z,72.96
2022-09-16T13:34:03.935Z,73.21
2022-09-16T13:36:34.393Z,73.85
2022-09-16T13:39:08.072Z,73.93
2022-09-16T13:41:47.387Z,74.24
2022-09-16T13:44:41.606Z,75.40
2022-09-16T13:47:14.149Z,75.37
2022-09-16T13:50:12.999Z,75.24
2022-09-16T13:52:42.108Z,75.31
2022-09-16T13:55:23.854Z,75.46
2022-09-16T13:58:14.532Z,75.84
2022-09-16T14:01:14.840Z,75.74
2022-09-16T14:04:27.521Z,75.60
2022-09-16T14:07:24.600Z,75.81
2022-09-16T14:10:15.844Z,76.06
2022-09-16T14:13:21.856Z,75.80
2022-09-16T14:15:53.899Z,75.57
2022-09-16T14:18:26.980Z,75.41
2022-09-16T14:21:04.977Z,75.54
2022-09-16T14:23:33.695Z,76.18
2022-09-16T14:26:18.223Z,76.14
2022-09-16T14:28:46.351Z,76.11
2022-09-16T14:31:20.367Z,76.39
2022-09-16T14:33:56.717Z,76.24
2022-09-16T14:36:32.639Z,76.44
2022-09-16T14:39:11.438Z,76.60
2022-09-16T14:41:44.281Z,76.95
2022-09-16T14:44:20.417Z,77.33
2022-09-16T14:47:00.257Z,77.48
2022-09-16T14:49:23.720Z,77.78
2022-09-16T14:51:59.138Z,78.04
2022-09-16T14:54:27.970Z,78.16
2022-09-16T14:57:12.487Z,77.98
2022-09-16T14:59:44.277Z,77.89
2022-09-16T15:02:44.280Z,77.87
2022-09-16T15:05:37.367Z,77.94
2022-09-16T15:08:36.596Z,77.87
2022-09-16T15:11:24.506Z,77.84
2022-09-16T15:13:43.977Z,77.64
2022-09-16T15:16:15.897Z,77.64
2022-09-16T15:18:57.192Z,77.96
2022-09-16T15:21:34.515Z,77.75
2022-09-16T15:24:05.662Z,77.71
2022-09-16T15:26:43.571Z,78.02
2022-09-16T15:29:25.737Z,78.02
2022-09-16T15:31:54.427Z,78.25
2022-09-16T15:34:23.995Z,78.17
2022-09-16T15:36:57.067Z,78.40
2022-09-16T15:39:30.019Z,78.52
2022-09-16T15:42:26.034Z,78.73
2022-09-16T15:44:57.305Z,78.84
2022-09-16T15:47:28.607Z,79.17
2022-09-16T15:50:15.679Z,79.15
2022-09-16T15:53:10.013Z,79.21
2022-09-16T15:55:45.960Z,79.46
2022-09-16T15:58:24.897Z,79.51
2022-09-16T16:01:26.720Z,79.59
2022-09-16T16:04:00.861Z,79.25
2022-09-16T16:06:57.289Z,78.64
2022-09-16T16:09:32.367Z,78.16
2022-09-16T16:12:07.985Z,77.84
2022-09-16T16:14:37.885Z,77.57
2022-09-16T16:17:20.889Z,77.41
2022-09-16T16:19:50.270Z,77.39
2022-09-16T16:22:19.996Z,77.16
2022-09-16T16:24:47.629Z,77.05
2022-09-16T16:27:15.278Z,77.17
2022-09-16T16:29:42.882Z,77.24
2022-09-16T16:32:13.974Z,77.29
2022-09-16T16:34:45.312Z,77.37
2022-09-16T16:37:40.214Z,77.27
2022-09-16T16:39:45.759Z,77.10
2022-09-16T16:42:15.259Z,77.02
2022-09-16T16:44:43.348Z,76.97
2022-09-16T16:47:11.344Z,76.99
2022-09-16T16:49:39.846Z,77.04
2022-09-16T16:52:08.445Z,77.19
2022-09-16T16:54:37.272Z,77.20
2022-09-16T16:57:04.903Z,77.08
2022-09-16T16:59:32.437Z,76.85
2022-09-16T17:01:59.816Z,76.81
2022-09-16T17:04:27.384Z,76.89
2022-09-16T17:07:21.330Z,76.68
2022-09-16T17:09:24.122Z,76.61
2022-09-16T17:11:58.254Z,76.62
2022-09-16T17:14:29.300Z,76.52
2022-09-16T17:16:57.425Z,76.53
2022-09-16T17:19:26.493Z,76.70
2022-09-16T17:21:55.132Z,76.65
2022-09-16T17:24:22.580Z,76.68
2022-09-16T17:26:50.175Z,76.79
2022-09-16T17:29:17.629Z,76.95
2022-09-16T17:31:45.794Z,77.13
2022-09-16T17:34:15.684Z,77.22
2022-09-16T17:36:46.295Z,77.48
2022-09-16T17:39:18.507Z,77.80
2022-09-16T17:41:48.269Z,77.95
2022-09-16T17:44:17.943Z,77.99
2022-09-16T17:46:47.043Z,78.06
2022-09-16T17:49:18.075Z,78.14
2022-09-16T17:51:45.981Z,78.22
2022-09-16T17:54:13.833Z,78.32
2022-09-16T17:56:42.391Z,78.22
2022-09-16T17:59:12.666Z,78.04
2022-09-16T18:01:41.165Z,77.92
2022-09-16T18:04:08.794Z,77.72
2022-09-16T18:06:45.343Z,77.40
2022-09-16T18:09:15.795Z,77.11
2022-09-16T18:11:44.561Z,77.08
2022-09-16T18:14:13.760Z,77.20
2022-09-16T18:16:41.923Z,77.34
2022-09-16T18:19:09.839Z,77.30
2022-09-16T18:21:37.926Z,77.22
2022-09-16T18:24:10.685Z,77.04
2022-09-16T18:26:40.159Z,77.09
2022-09-16T18:29:11.537Z,77.38
2022-09-16T18:31:43.870Z,77.59
2022-09-16T18:34:12.663Z,77.77
2022-09-16T18:36:40.585Z,77.86
2022-09-16T18:39:15.164Z,78.04
2022-09-16T18:41:44.955Z,78.29
2022-09-16T18:44:23.180Z,78.45
2022-09-16T18:46:52.676Z,78.63
2022-09-16T18:49:25.907Z,78.63
2022-09-16T18:51:53.652Z,78.45
2022-09-16T18:54:28.397Z,78.67
2022-09-16T18:56:59.354Z,78.52
2022-09-16T18:59:30.362Z,78.40
2022-09-16T19:02:00.580Z,78.35
2022-09-16T19:04:31.923Z,78.44
2022-09-16T19:07:09.536Z,78.36
2022-09-16T19:09:42.018Z,78.34
2022-09-16T19:12:12.363Z,78.35
2022-09-16T19:14:40.662Z,78.34
2022-09-16T19:17:09.125Z,78.36
2022-09-16T19:19:36.521Z,78.36
2022-09-16T19:22:05.239Z,78.35
2022-09-16T19:24:33.939Z,78.38
2022-09-16T19:27:01.430Z,78.47
2022-09-16T19:29:28.994Z,78.47
2022-09-16T19:31:56.808Z,78.55
2022-09-16T19:34:24.533Z,78.65
2022-09-16T19:36:52.058Z,78.79
2022-09-16T19:39:20.677Z,78.88
2022-09-16T19:41:48.173Z,78.88
2022-09-16T19:44:17.600Z,79.14
2022-09-16T19:46:48.006Z,79.14
2022-09-16T19:49:20.459Z,79.13
2022-09-16T19:51:49.323Z,78.76
2022-09-16T19:54:17.840Z,78.76
2022-09-16T19:56:50.194Z,78.66
2022-09-16T19:59:15.380Z,78.76
2022-09-16T20:01:43.306Z,78.67
2022-09-16T20:04:10.687Z,78.59
2022-09-16T20:06:41.143Z,78.56
2022-09-16T20:09:12.425Z,78.54
2022-09-16T20:11:44.134Z,78.71
2022-09-16T20:14:18.753Z,78.79
2022-09-16T20:16:48.210Z,78.83
2022-09-16T20:19:18.255Z,78.92
2022-09-16T20:21:46.025Z,78.96
2022-09-16T20:24:17.696Z,79.07
2022-09-16T20:26:47.708Z,79.13
2022-09-16T20:29:16.864Z,79.25
2022-09-16T20:31:45.550Z,79.37
2022-09-16T20:34:15.708Z,79.50
2022-09-16T20:36:44.937Z,79.56
2022-09-16T20:39:13.558Z,79.66
2022-09-16T20:41:41.970Z,79.76
2022-09-16T20:44:15.162Z,79.73
2022-09-16T20:46:43.123Z,79.71
2022-09-16T20:49:15.364Z,79.74
2022-09-16T20:51:43.828Z,79.71
2022-09-16T20:54:14.415Z,79.70
2022-09-16T20:56:45.725Z,79.67
2022-09-16T20:59:15.955Z,79.52
2022-09-16T21:01:44.215Z,79.40
2022-09-16T21:04:16.413Z,79.33
2022-09-16T21:06:44.978Z,79.37
2022-09-16T21:09:15.316Z,79.45
2022-09-16T21:11:45.872Z,79.43
2022-09-16T21:14:15.782Z,79.43
2022-09-16T21:16:46.466Z,79.41
2022-09-16T21:19:14.646Z,79.55
2022-09-16T21:21:45.732Z,79.71
2022-09-16T21:24:14.479Z,79.87
2022-09-16T21:26:43.487Z,79.76
2022-09-16T21:29:15.474Z,79.71
2022-09-16T21:31:43.559Z,79.72
2022-09-16T21:34:18.135Z,79.86
2022-09-16T21:36:47.104Z,79.77
2022-09-16T21:39:15.960Z,79.54
2022-09-16T21:41:46.118Z,79.25
2022-09-16T21:44:14.555Z,79.16
2022-09-16T21:46:45.696Z,79.11
2022-09-16T21:49:28.332Z,79.05
2022-09-16T21:51:58.035Z,79.01
2022-09-16T21:54:27.444Z,79.20
2022-09-16T21:56:55.366Z,79.08
2022-09-16T21:59:23.156Z,79.07
2022-09-16T22:01:52.174Z,79.13
2022-09-16T22:04:23.212Z,79.27
2022-09-16T22:06:54.373Z,79.42
2022-09-16T22:09:22.603Z,79.55
2022-09-16T22:11:50.990Z,79.69
2022-09-16T22:14:18.594Z,79.71
2022-09-16T22:16:46.272Z,79.83
2022-09-16T22:19:17.853Z,79.96
2022-09-16T22:21:49.122Z,80.32
2022-09-16T22:24:19.652Z,80.47
2022-09-16T22:26:49.694Z,80.46
2022-09-16T22:29:17.627Z,80.50
2022-09-16T22:31:45.404Z,80.57
2022-09-16T22:34:12.843Z,80.29
2022-09-16T22:36:41.033Z,80.12
2022-09-16T22:39:15.611Z,79.93
2022-09-16T22:41:43.581Z,79.74
2022-09-16T22:44:12.036Z,79.52
2022-09-16T22:46:43.639Z,79.35
2022-09-16T22:49:11.481Z,79.29
2022-09-16T22:51:39.607Z,79.34
2022-09-16T22:54:08.712Z,79.45
2022-09-16T22:56:36.140Z,79.42
2022-09-16T22:59:06.014Z,79.51
2022-09-16T23:01:38.095Z,79.59
2022-09-16T23:04:07.560Z,79.71
2022-09-16T23:06:36.386Z,79.83
2022-09-16T23:09:05.817Z,79.88
2022-09-16T23:11:35.242Z,79.90
2022-09-16T23:14:03.736Z,80.01
2022-09-16T23:16:37.932Z,80.29
2022-09-16T23:19:09.647Z,80.45
2022-09-16T23:21:37.568Z,80.45
2022-09-16T23:24:07.439Z,80.51
2022-09-16T23:26:37.559Z,80.67
2022-09-16T23:29:08.887Z,80.72
2022-09-16T23:31:40.757Z,80.91
2022-09-16T23:34:19.081Z,80.92
2022-09-16T23:36:47.114Z,80.83
2022-09-16T23:39:16.821Z,80.71
2022-09-16T23:41:45.132Z,80.49
2022-09-16T23:44:14.521Z,80.34
2022-09-16T23:46:42.704Z,79.90
2022-09-16T23:49:10.313Z,79.53
2022-09-16T23:51:37.882Z,79.33
2022-09-16T23:54:05.398Z,79.39
2022-09-16T23:56:33.050Z,79.47
2022-09-16T23:59:00.856Z,79.52
